Time;durP1;ratioP1;P1;durP2;ratioP2;P2;SDS_P1;SDS_P2;PMS_P1;PMS_P2;Temp;Humidity;BMP_temperature;BMP_pressure;BME280_temperature;BME280_humidity;BME280_pressure;Samples;Min_cycle;Max_cycle;Signal;HPM_P1;HPM_P2
2023/02/15 00:01:55;;;;;;;40.83;19.55;;;-0.90;99.90;;;-148.53;100.00;63986.66;5001762;28;20409;-74
2023/02/15 00:04:45;;;;;;;38.67;18.70;;;-1.00;99.90;;;-148.53;100.00;63986.66;5014510;28;20034;-74
2023/02/15 00:07:11;;;;;;;36.53;18.08;;;-1.00;99.90;;;-148.53;100.00;63986.66;5010998;28;20041;-72
2023/02/15 00:09:36;;;;;;;38.45;18.85;;;-1.00;99.90;;;-148.53;100.00;63986.66;5006736;28;20050;-74
2023/02/15 00:12:02;;;;;;;43.60;19.42;;;-1.00;99.90;;;-148.53;100.00;63986.66;5004351;28;20052;-73
2023/02/15 00:14:28;;;;;;;32.67;16.17;;;-1.20;99.90;;;-148.53;100.00;63986.66;5008074;28;20474;-73
2023/02/15 00:16:54;;;;;;;37.75;17.95;;;-1.30;99.90;;;-148.53;100.00;63986.66;5010774;28;20042;-74
2023/02/15 00:19:21;;;;;;;31.70;17.08;;;-1.40;99.90;;;-148.53;100.00;63986.66;5007110;28;20038;-74
2023/02/15 00:21:48;;;;;;;26.15;14.55;;;-1.30;99.90;;;-148.53;100.00;63986.66;5009288;28;20036;-74
2023/02/15 00:24:17;;;;;;;29.83;15.90;;;-1.40;99.90;;;-148.53;100.00;63986.66;5008992;28;20363;-73
2023/02/15 00:26:44;;;;;;;52.58;17.67;;;-1.50;99.90;;;-148.53;100.00;63986.66;5009613;28;20100;-74
2023/02/15 00:29:11;;;;;;;31.38;14.32;;;-1.50;99.90;;;-148.53;100.00;63986.66;5009740;28;20124;-74
2023/02/15 00:31:37;;;;;;;32.92;14.90;;;-1.50;99.90;;;-148.53;100.00;63986.66;5007837;28;20498;-74
2023/02/15 00:34:13;;;;;;;36.08;15.85;;;-1.30;99.90;;;-148.53;100.00;63986.66;5010534;28;20374;-74
2023/02/15 00:36:40;;;;;;;46.55;16.52;;;-1.30;99.90;;;-148.53;100.00;63986.66;5010330;28;20046;-74
2023/02/15 00:39:06;;;;;;;34.65;16.83;;;-1.30;99.90;;;-148.53;100.00;63986.66;5009950;28;20433;-74
2023/02/15 00:41:33;;;;;;;44.63;16.88;;;-1.30;99.90;;;-148.53;100.00;63986.66;5002006;28;20042;-74
2023/02/15 00:43:59;;;;;;;33.67;16.42;;;-1.40;99.90;;;-148.53;100.00;63986.66;5010254;28;20045;-74
2023/02/15 00:46:25;;;;;;;31.48;17.08;;;-1.50;99.90;;;-148.53;100.00;63986.66;5005846;28;20046;-74
2023/02/15 00:48:51;;;;;;;30.80;15.82;;;-1.50;99.90;;;-148.53;100.00;63986.66;5005683;28;20042;-73
2023/02/15 00:51:17;;;;;;;30.83;16.67;;;-1.40;99.90;;;-148.53;100.00;63986.66;5007133;28;20042;-73
2023/02/15 00:53:46;;;;;;;32.85;16.80;;;-1.20;99.90;;;-148.53;100.00;63986.66;5008682;28;20042;-73
2023/02/15 00:56:13;;;;;;;34.10;16.95;;;-1.10;99.90;;;-148.53;100.00;63986.66;5010160;28;20030;-73
2023/02/15 00:58:38;;;;;;;34.15;16.98;;;-1.00;99.90;;;-148.53;100.00;63986.66;5009345;28;20037;-73
2023/02/15 01:01:09;;;;;;;35.63;17.25;;;-1.00;99.90;;;-148.53;100.00;63986.66;5008524;28;20030;-74
2023/02/15 01:03:35;;;;;;;33.50;17.38;;;-1.10;99.90;;;-148.53;100.00;63986.66;4996759;28;20044;-74
2023/02/15 01:06:04;;;;;;;34.35;16.98;;;-1.00;99.90;;;-148.53;100.00;63986.66;4999410;28;20114;-72
2023/02/15 01:08:30;;;;;;;39.17;18.05;;;-1.20;99.90;;;-148.53;100.00;63986.66;5008995;28;20073;-73
2023/02/15 01:10:57;;;;;;;48.10;20.88;;;-1.10;99.90;;;-148.53;100.00;63986.66;4997425;28;20063;-72
2023/02/15 01:13:23;;;;;;;49.13;21.50;;;-0.80;99.90;;;-148.53;100.00;63986.66;5006540;28;20077;-72
2023/02/15 01:15:54;;;;;;;47.78;21.27;;;-0.80;99.90;;;-148.53;100.00;63986.66;5008143;28;20283;-73
2023/02/15 01:18:21;;;;;;;47.97;20.42;;;-0.70;99.90;;;-148.53;100.00;63986.66;5006098;28;20093;-73
2023/02/15 01:20:48;;;;;;;45.35;20.42;;;-0.70;99.90;;;-148.53;100.00;63986.66;5008628;28;20041;-73
2023/02/15 01:23:15;;;;;;;45.50;19.77;;;-0.50;99.90;;;-148.53;100.00;63986.66;5004221;28;20083;-73
2023/02/15 01:25:41;;;;;;;50.97;21.40;;;-0.30;99.90;;;-148.53;100.00;63986.66;5004920;28;20046;-73
2023/02/15 01:28:06;;;;;;;45.08;20.38;;;-0.20;99.90;;;-148.53;100.00;63986.66;5008495;28;20482;-72
2023/02/15 01:30:33;;;;;;;45.58;20.90;;;-0.10;99.90;;;-148.53;100.00;63986.66;5008400;28;20053;-72
2023/02/15 01:33:00;;;;;;;42.47;20.15;;;-0.20;99.90;;;-148.53;100.00;63986.66;4992711;28;20080;-72
2023/02/15 01:35:27;;;;;;;45.35;20.88;;;-0.20;99.90;;;-148.53;100.00;63986.66;4999163;28;20079;-72
2023/02/15 01:37:55;;;;;;;47.28;20.40;;;-0.50;99.90;;;-148.53;100.00;63986.66;5004286;28;20034;-72
2023/02/15 01:40:22;;;;;;;38.83;18.85;;;-0.70;99.90;;;-148.53;100.00;63986.66;5003482;28;20117;-73
2023/02/15 01:42:52;;;;;;;36.85;17.08;;;-0.80;99.90;;;-148.53;100.00;63986.66;5008538;28;20377;-73
2023/02/15 01:45:31;;;;;;;36.63;16.75;;;-1.00;99.90;;;-148.53;100.00;63986.66;5004294;28;20038;-73
2023/02/15 01:48:05;;;;;;;33.15;15.68;;;-1.10;99.90;;;-148.53;100.00;63986.66;5008958;28;20045;-73
2023/02/15 01:50:44;;;;;;;32.67;16.20;;;-1.20;99.90;;;-148.53;100.00;63986.66;5008618;28;20046;-73
2023/02/15 01:53:46;;;;;;;28.20;13.50;;;-1.50;99.90;;;-148.53;100.00;63986.66;4996075;28;20046;-73
2023/02/15 01:56:20;;;;;;;25.52;13.27;;;-1.70;99.90;;;-148.53;100.00;63986.66;5001660;28;20037;-73
2023/02/15 01:58:52;;;;;;;23.77;13.38;;;-1.80;99.90;;;-148.53;100.00;63986.66;4994793;28;20581;-73
2023/02/15 02:01:19;;;;;;;23.50;12.05;;;-1.80;99.90;;;-148.53;100.00;63986.66;5004929;28;20030;-73
2023/02/15 02:04:01;;;;;;;30.15;13.57;;;-1.90;99.90;;;-148.53;100.00;63986.66;5014964;28;20041;-73
2023/02/15 02:06:31;;;;;;;26.83;13.45;;;-1.80;99.90;;;-148.53;100.00;63986.66;5001776;28;20057;-73
2023/02/15 02:08:58;;;;;;;30.30;14.77;;;-1.80;99.90;;;-148.53;100.00;63986.66;5008678;28;20069;-73
2023/02/15 02:11:25;;;;;;;30.55;15.00;;;-1.80;99.90;;;-148.53;100.00;63986.66;4994147;28;20065;-74
2023/02/15 02:13:54;;;;;;;29.83;14.88;;;-1.70;99.90;;;-148.53;100.00;63986.66;5004949;28;20134;-74
2023/02/15 02:17:13;;;;;;;36.25;16.50;;;-1.70;99.90;;;-148.53;100.00;63986.66;5007298;28;20351;-74
2023/02/15 02:20:49;;;;;;;34.45;15.68;;;-1.70;99.90;;;-148.53;100.00;63986.66;5005402;28;20041;-73
2023/02/15 02:24:20;;;;;;;31.35;14.05;;;-1.80;99.90;;;-148.53;100.00;63986.66;4999990;28;20046;-73
2023/02/15 02:27:30;;;;;;;31.85;14.65;;;-1.90;99.90;;;-148.53;100.00;63986.66;4999753;28;20156;-74
2023/02/15 02:30:17;;;;;;;34.58;15.98;;;-1.70;99.90;;;-148.53;100.00;63986.66;5006555;28;20100;-74
2023/02/15 02:33:13;;;;;;;34.08;15.80;;;-1.40;99.90;;;-148.53;100.00;63986.66;5007403;28;20045;-73
2023/02/15 02:36:07;;;;;;;36.97;16.60;;;-0.80;99.90;;;-148.53;100.00;63986.66;5007720;28;20038;-73
2023/02/15 02:39:12;;;;;;;35.45;15.88;;;-0.40;99.90;;;-148.53;100.00;63986.66;5007307;28;20042;-73
2023/02/15 02:41:58;;;;;;;33.92;15.90;;;-0.10;99.90;;;-148.53;100.00;63986.66;5016187;28;20080;-74
2023/02/15 02:44:43;;;;;;;34.20;16.92;;;0.00;99.90;;;-148.53;100.00;63986.66;5008390;28;20481;-73
2023/02/15 02:47:38;;;;;;;37.25;16.38;;;0.20;99.90;;;-148.53;100.00;63986.66;5003808;28;20076;-73
2023/02/15 02:50:22;;;;;;;33.08;15.65;;;0.40;99.90;;;-148.53;100.00;63986.66;5004660;28;20030;-73
2023/02/15 02:52:51;;;;;;;38.08;17.08;;;0.50;99.90;;;-148.53;100.00;63986.66;5006844;28;20389;-73
2023/02/15 02:55:47;;;;;;;36.95;17.05;;;0.70;99.90;;;-148.53;100.00;63986.66;5011504;28;20038;-73
2023/02/15 02:58:57;;;;;;;37.35;16.48;;;0.80;99.90;;;-148.53;100.00;63986.66;4995456;28;20074;-73
2023/02/15 03:01:46;;;;;;;44.10;18.05;;;1.00;99.90;;;-148.53;100.00;63986.66;5008846;28;20438;-73
2023/02/15 03:04:23;;;;;;;40.20;17.83;;;1.20;99.90;;;-148.53;100.00;63986.66;5012022;28;20062;-73
2023/02/15 03:06:57;;;;;;;42.25;18.45;;;1.30;99.90;;;-148.53;100.00;63986.66;4999060;28;20038;-73
2023/02/15 03:09:41;;;;;;;41.17;19.00;;;1.40;99.90;;;-148.53;100.00;63986.66;4994811;28;20399;-73
2023/02/15 03:12:22;;;;;;;40.25;18.85;;;1.40;99.90;;;-148.53;100.00;63986.66;5011488;28;20112;-73
2023/02/15 03:14:56;;;;;;;37.05;17.73;;;1.50;99.90;;;-148.53;100.00;63986.66;5012551;28;20470;-73
2023/02/15 03:17:27;;;;;;;37.90;17.60;;;1.50;99.90;;;-148.53;100.00;63986.66;5004518;28;20466;-73
2023/02/15 03:19:59;;;;;;;42.08;18.52;;;1.60;99.90;;;-148.53;100.00;63986.66;5010418;28;20096;-73
2023/02/15 03:22:35;;;;;;;40.80;17.92;;;1.60;99.90;;;-148.53;100.00;63986.66;5007703;28;20493;-73
2023/02/15 03:25:27;;;;;;;40.78;19.23;;;1.60;99.90;;;-148.53;100.00;63986.66;5004726;28;20041;-73
2023/02/15 03:28:04;;;;;;;39.20;18.02;;;1.70;99.90;;;-148.53;100.00;63986.66;4999183;28;20050;-73
2023/02/15 03:30:33;;;;;;;39.40;17.30;;;1.80;99.90;;;-148.53;100.00;63986.66;5001477;28;20099;-73
2023/02/15 03:33:02;;;;;;;36.58;18.80;;;1.80;99.90;;;-148.53;100.00;63986.66;5008170;28;20081;-73
2023/02/15 03:35:56;;;;;;;35.38;17.15;;;1.80;99.90;;;-148.53;100.00;63986.66;5012296;28;20037;-73
2023/02/15 03:38:36;;;;;;;35.78;16.38;;;1.80;99.90;;;-148.53;100.00;63986.66;5004393;28;20026;-73
2023/02/15 03:41:09;;;;;;;37.33;17.73;;;1.90;99.90;;;-148.53;100.00;63986.66;5007323;28;20054;-73
2023/02/15 03:44:07;;;;;;;38.78;18.33;;;1.90;99.90;;;-148.53;100.00;63986.66;5008595;28;20447;-73
2023/02/15 03:46:48;;;;;;;34.25;16.60;;;1.80;99.90;;;-148.53;100.00;63986.66;5007865;28;20100;-73
2023/02/15 03:49:46;;;;;;;32.30;16.25;;;1.90;99.90;;;-148.53;100.00;63986.66;5005221;28;20120;-73
2023/02/15 03:52:16;;;;;;;31.88;16.48;;;2.00;99.90;;;-148.53;100.00;63986.66;5006438;28;20042;-73
2023/02/15 03:54:44;;;;;;;36.83;17.52;;;2.00;99.90;;;-148.53;100.00;63986.66;4997061;28;20046;-73
2023/02/15 04:03:23;;;;;;;32.15;16.15;;;2.00;99.90;;;-148.53;100.00;63986.66;5007310;28;20104;-73
2023/02/15 04:05:49;;;;;;;32.85;16.13;;;2.00;99.90;;;-148.53;100.00;63986.66;5010568;28;20052;-73
2023/02/15 04:08:15;;;;;;;32.65;16.88;;;2.00;99.90;;;-148.53;100.00;63986.66;5011090;28;20204;-73
2023/02/15 04:10:53;;;;;;;30.30;16.10;;;2.10;99.90;;;-148.53;100.00;63986.66;5010302;28;20056;-73
2023/02/15 04:13:29;;;;;;;28.57;15.50;;;2.10;99.90;;;-148.53;100.00;63986.66;5007184;28;20121;-73
2023/02/15 04:16:03;;;;;;;34.83;16.80;;;2.10;99.90;;;-148.53;100.00;63986.66;5009851;28;20038;-73
2023/02/15 04:26:55;;;;;;;30.42;15.88;;;2.10;99.90;;;-148.53;100.00;63986.66;5010237;28;20156;-73
2023/02/15 04:29:23;;;;;;;30.33;15.52;;;2.10;99.90;;;-148.53;100.00;63986.66;5015532;28;20038;-73
2023/02/15 04:31:51;;;;;;;34.35;16.42;;;2.10;99.90;;;-148.53;100.00;63986.66;5018567;28;20116;-73
2023/02/15 04:34:17;;;;;;;30.20;15.60;;;2.10;99.90;;;-148.53;100.00;63986.66;5010314;28;20054;-73
2023/02/15 04:36:43;;;;;;;30.48;15.50;;;2.10;99.90;;;-148.53;100.00;63986.66;5009697;28;20412;-73
2023/02/15 04:39:12;;;;;;;29.35;15.13;;;2.10;99.90;;;-148.53;100.00;63986.66;5009853;28;20121;-73
2023/02/15 04:41:37;;;;;;;28.52;15.13;;;2.10;99.90;;;-148.53;100.00;63986.66;4999247;28;20482;-73
2023/02/15 04:44:03;;;;;;;30.55;14.98;;;2.10;99.90;;;-148.53;100.00;63986.66;5010555;28;20041;-73
2023/02/15 04:46:29;;;;;;;31.30;16.30;;;2.10;99.90;;;-148.53;100.00;63986.66;5008389;28;20514;-73
2023/02/15 04:48:55;;;;;;;32.40;16.52;;;2.20;99.90;;;-148.53;100.00;63986.66;5009542;28;20197;-73
2023/02/15 04:51:21;;;;;;;27.77;14.55;;;2.20;99.90;;;-148.53;100.00;63986.66;5009461;28;20049;-73
2023/02/15 04:53:47;;;;;;;29.20;14.90;;;2.20;99.90;;;-148.53;100.00;63986.66;5009444;28;20052;-73
2023/02/15 04:56:13;;;;;;;34.05;16.02;;;2.20;99.90;;;-148.53;100.00;63986.66;5007881;28;20046;-73
2023/02/15 04:58:40;;;;;;;27.85;15.05;;;2.20;99.90;;;-148.53;100.00;63986.66;5008854;28;20042;-73
2023/02/15 05:01:08;;;;;;;30.17;15.10;;;2.20;99.90;;;-148.53;100.00;63986.66;5008183;28;20116;-73
2023/02/15 05:03:34;;;;;;;25.67;14.15;;;2.20;99.90;;;-148.53;100.00;63986.66;5008558;28;20048;-73
2023/02/15 05:06:00;;;;;;;26.65;14.25;;;2.20;99.90;;;-148.53;100.00;63986.66;5010038;28;20045;-73
2023/02/15 05:08:26;;;;;;;30.35;14.85;;;2.20;99.90;;;-148.53;100.00;63986.66;5009116;28;20030;-73
2023/02/15 05:10:52;;;;;;;29.35;14.68;;;2.30;99.90;;;-148.53;100.00;63986.66;5010320;28;20497;-73
2023/02/15 05:13:17;;;;;;;29.98;15.55;;;2.20;99.90;;;-148.53;100.00;63986.66;5008782;28;20374;-73
2023/02/15 05:15:51;;;;;;;28.83;15.48;;;2.30;99.90;;;-148.53;100.00;63986.66;5009241;28;20125;-73
2023/02/15 05:18:20;;;;;;;28.48;16.00;;;2.30;99.90;;;-148.53;100.00;63986.66;5009458;28;20038;-73
2023/02/15 05:20:46;;;;;;;27.15;14.20;;;2.30;99.90;;;-148.53;100.00;63986.66;5004046;28;20041;-73
2023/02/15 05:23:12;;;;;;;28.27;15.32;;;2.30;99.90;;;-148.53;100.00;63986.66;5014482;28;20056;-73
2023/02/15 05:28:25;;;;;;;29.10;14.02;;;2.30;99.90;;;-148.53;100.00;63986.66;5008168;28;20130;-74
2023/02/15 05:31:04;;;;;;;28.95;15.52;;;2.30;99.90;;;-148.53;100.00;63986.66;4998129;28;20473;-73
2023/02/15 05:33:29;;;;;;;27.77;15.10;;;2.30;99.90;;;-148.53;100.00;63986.66;5003408;28;20144;-74
2023/02/15 05:35:55;;;;;;;26.73;13.48;;;2.20;99.90;;;-148.53;100.00;63986.66;5008565;28;20034;-74
2023/02/15 05:38:21;;;;;;;26.77;13.88;;;2.20;99.90;;;-148.53;100.00;63986.66;5005594;28;20062;-74
2023/02/15 05:40:46;;;;;;;26.88;14.93;;;2.20;99.90;;;-148.53;100.00;63986.66;5009037;28;20543;-74
2023/02/15 05:43:12;;;;;;;26.85;14.57;;;2.20;99.90;;;-148.53;100.00;63986.66;5002606;28;20033;-73
2023/02/15 05:45:38;;;;;;;24.70;13.52;;;2.20;99.90;;;-148.53;100.00;63986.66;5003484;28;20054;-74
2023/02/15 05:48:03;;;;;;;25.17;13.43;;;2.20;99.90;;;-148.53;100.00;63986.66;4999419;28;20042;-78
2023/02/15 05:50:29;;;;;;;26.20;13.75;;;2.30;99.90;;;-148.53;100.00;63986.66;5007571;28;20046;-74
2023/02/15 05:52:58;;;;;;;23.77;12.85;;;2.20;99.90;;;-148.53;100.00;63986.66;5002154;28;20045;-74
2023/02/15 05:55:24;;;;;;;26.70;13.68;;;2.20;99.90;;;-148.53;100.00;63986.66;5008168;28;20086;-74
2023/02/15 05:57:50;;;;;;;26.38;14.02;;;2.30;99.90;;;-148.53;100.00;63986.66;5006807;28;20640;-74
2023/02/15 06:00:16;;;;;;;23.75;13.30;;;2.20;99.90;;;-148.53;100.00;63986.66;5008601;28;20033;-72
2023/02/15 06:02:42;;;;;;;25.45;13.27;;;2.20;99.90;;;-148.53;100.00;63986.66;5008362;28;20049;-73
2023/02/15 06:05:08;;;;;;;24.98;13.63;;;2.20;99.90;;;-148.53;100.00;63986.66;5008229;28;20481;-73
2023/02/15 06:07:33;;;;;;;24.52;12.63;;;2.10;99.90;;;-148.53;100.00;63986.66;5008701;28;20058;-74
2023/02/15 06:09:59;;;;;;;26.88;13.82;;;2.10;99.90;;;-148.53;100.00;63986.66;5004859;28;20033;-73
2023/02/15 06:12:25;;;;;;;26.77;13.98;;;2.10;99.90;;;-148.53;100.00;63986.66;5005652;28;20061;-74
2023/02/15 06:14:50;;;;;;;26.15;13.18;;;2.10;99.90;;;-148.53;100.00;63986.66;5009099;28;20053;-73
2023/02/15 06:17:17;;;;;;;25.23;12.98;;;2.00;99.90;;;-148.53;100.00;63986.66;5007909;28;20046;-73
2023/02/15 06:19:43;;;;;;;21.27;12.32;;;2.10;99.90;;;-148.53;100.00;63986.66;5003659;28;20398;-74
2023/02/15 06:22:09;;;;;;;25.48;13.52;;;2.10;99.90;;;-148.53;100.00;63986.66;5003529;28;20382;-74
2023/02/15 06:24:34;;;;;;;23.95;12.93;;;2.10;99.90;;;-148.53;100.00;63986.66;4997636;28;20034;-74
2023/02/15 06:27:00;;;;;;;22.25;12.48;;;2.10;99.90;;;-148.53;100.00;63986.66;5004177;28;20042;-74
2023/02/15 06:29:26;;;;;;;22.30;11.85;;;2.10;99.90;;;-148.53;100.00;63986.66;5005758;28;20497;-74
2023/02/15 06:31:51;;;;;;;22.55;11.88;;;2.10;99.90;;;-148.53;100.00;63986.66;5005916;28;20034;-74
2023/02/15 06:34:17;;;;;;;24.25;12.63;;;2.00;99.90;;;-148.53;100.00;63986.66;4995587;28;20078;-75
2023/02/15 06:36:43;;;;;;;22.30;11.52;;;2.10;99.90;;;-148.53;100.00;63986.66;5002744;28;20095;-74
2023/02/15 06:39:09;;;;;;;20.25;11.15;;;2.10;99.90;;;-148.53;100.00;63986.66;5005957;28;20046;-74
2023/02/15 06:41:34;;;;;;;20.15;11.52;;;2.10;99.90;;;-148.53;100.00;63986.66;5005072;28;20061;-74
2023/02/15 06:44:00;;;;;;;20.88;11.40;;;2.10;99.90;;;-148.53;100.00;63986.66;5005444;28;20052;-75
2023/02/15 06:46:26;;;;;;;23.23;11.18;;;2.10;99.90;;;-148.53;100.00;63986.66;5004874;28;20038;-75
2023/02/15 06:48:52;;;;;;;21.60;11.55;;;2.10;99.90;;;-148.53;100.00;63986.66;5005567;28;20046;-75
2023/02/15 06:51:18;;;;;;;20.38;11.70;;;2.20;99.90;;;-148.53;100.00;63986.66;4988834;28;20065;-75
2023/02/15 06:53:44;;;;;;;18.50;10.23;;;2.10;99.90;;;-148.53;100.00;63986.66;5005970;28;20762;-75
2023/02/15 06:56:10;;;;;;;20.38;11.77;;;2.10;99.90;;;-148.53;100.00;63986.66;5004871;28;20288;-73
2023/02/15 06:58:38;;;;;;;21.05;11.65;;;2.10;99.90;;;-148.53;100.00;63986.66;5004411;28;20075;-75
2023/02/15 07:01:05;;;;;;;20.45;11.50;;;2.10;99.90;;;-148.53;100.00;63986.66;4999126;28;20046;-73
2023/02/15 07:03:31;;;;;;;21.70;10.73;;;2.10;99.90;;;-148.53;100.00;63986.66;5000245;28;20176;-75
2023/02/15 07:06:00;;;;;;;19.98;10.55;;;2.10;99.90;;;-148.53;100.00;63986.66;5001169;28;20049;-74
2023/02/15 07:08:27;;;;;;;19.75;11.50;;;2.10;99.90;;;-148.53;100.00;63986.66;5004810;28;20124;-75
2023/02/15 07:10:54;;;;;;;20.10;11.10;;;2.10;99.90;;;-148.53;100.00;63986.66;5005433;28;20038;-77
2023/02/15 07:13:20;;;;;;;18.10;10.73;;;2.20;99.90;;;-148.53;100.00;63986.66;5002107;28;20401;-76
2023/02/15 07:15:48;;;;;;;18.15;10.95;;;2.20;99.90;;;-148.53;100.00;63986.66;5005384;28;20462;-76
2023/02/15 07:18:14;;;;;;;18.55;11.38;;;2.20;99.90;;;-148.53;100.00;63986.66;5006527;28;20030;-76
2023/02/15 07:20:41;;;;;;;19.58;10.88;;;2.20;99.90;;;-148.53;100.00;63986.66;5005085;28;20390;-78
2023/02/15 07:23:08;;;;;;;20.27;11.38;;;2.30;99.90;;;-148.53;100.00;63986.66;5005277;28;20068;-75
2023/02/15 07:25:34;;;;;;;19.55;11.20;;;2.30;99.90;;;-148.53;100.00;63986.66;5005185;28;20497;-77
2023/02/15 07:28:03;;;;;;;19.27;11.07;;;2.30;99.90;;;-148.53;100.00;63986.66;4995637;28;20066;-76
2023/02/15 07:30:29;;;;;;;20.70;11.35;;;2.20;99.90;;;-148.53;100.00;63986.66;5003014;28;20120;-74
2023/02/15 07:35:57;;;;;;;20.40;10.90;;;2.20;99.90;;;-148.53;100.00;63986.66;5005112;28;20119;-73
2023/02/15 07:38:25;;;;;;;20.50;10.90;;;2.20;99.90;;;-148.53;100.00;63986.66;5007026;28;20052;-72
2023/02/15 07:40:51;;;;;;;19.30;9.70;;;2.30;99.90;;;-148.53;100.00;63986.66;5005249;28;20389;-74
2023/02/15 07:43:17;;;;;;;19.05;10.65;;;2.30;99.90;;;-148.53;100.00;63986.66;5002975;28;20138;-73
2023/02/15 07:45:43;;;;;;;18.27;10.23;;;2.30;99.90;;;-148.53;100.00;63986.66;5011037;28;20139;-73
2023/02/15 07:48:09;;;;;;;19.00;10.77;;;2.40;99.90;;;-148.53;100.00;63986.66;5011617;28;20137;-74
2023/02/15 07:50:35;;;;;;;18.42;11.13;;;2.30;99.90;;;-148.53;100.00;63986.66;5009003;28;20129;-75
2023/02/15 07:53:04;;;;;;;22.33;11.32;;;2.40;99.90;;;-148.53;100.00;63986.66;5004820;28;20050;-73
2023/02/15 07:55:30;;;;;;;23.88;11.27;;;2.40;99.90;;;-148.53;100.00;63986.66;5005886;28;20038;-74
2023/02/15 07:57:55;;;;;;;17.08;9.73;;;2.50;99.90;;;-148.53;100.00;63986.66;5011447;28;20551;-73
2023/02/15 08:00:26;;;;;;;19.35;10.43;;;2.60;99.90;;;-148.53;100.00;63986.66;5000944;28;20077;-73
2023/02/15 08:03:13;;;;;;;18.33;9.85;;;2.70;99.90;;;-148.53;100.00;63986.66;5011879;28;20376;-73
2023/02/15 08:05:40;;;;;;;16.98;9.45;;;2.70;99.90;;;-148.53;100.00;63986.66;5011597;28;20061;-74
2023/02/15 08:08:07;;;;;;;17.48;9.35;;;2.70;99.90;;;-148.53;100.00;63986.66;5011041;28;20072;-74
2023/02/15 08:13:19;;;;;;;18.15;10.23;;;2.80;99.90;;;-148.53;100.00;63986.66;5006804;28;20029;-73
2023/02/15 08:15:50;;;;;;;16.88;9.43;;;2.80;99.90;;;-148.53;100.00;63986.66;4999475;28;20489;-74
2023/02/15 08:18:16;;;;;;;16.52;9.68;;;2.90;99.90;;;-148.53;100.00;63986.66;5008775;28;20410;-73
2023/02/15 08:20:42;;;;;;;18.60;9.88;;;2.90;99.90;;;-148.53;100.00;63986.66;5013962;28;20077;-72
2023/02/15 08:23:08;;;;;;;16.33;9.25;;;3.00;99.90;;;-148.53;100.00;63986.66;5013324;28;20030;-72
2023/02/15 08:25:33;;;;;;;21.75;11.38;;;3.00;99.90;;;-148.53;100.00;63986.66;5009342;28;20100;-72
2023/02/15 08:27:59;;;;;;;18.88;10.20;;;3.10;99.90;;;-148.53;100.00;63986.66;5020405;28;20045;-72
2023/02/15 08:30:25;;;;;;;15.60;9.48;;;3.10;99.90;;;-148.53;100.00;63986.66;5007683;28;20038;-72
2023/02/15 08:32:50;;;;;;;17.25;9.65;;;3.20;99.90;;;-148.53;100.00;63986.66;5010783;28;20053;-72
2023/02/15 08:35:16;;;;;;;18.05;9.43;;;3.30;99.90;;;-148.53;100.00;63986.66;5009735;28;20038;-72
2023/02/15 08:37:42;;;;;;;16.33;10.13;;;3.40;99.90;;;-148.53;100.00;63986.66;5010103;28;20045;-72
2023/02/15 08:40:09;;;;;;;17.20;9.75;;;3.50;99.90;;;-148.53;100.00;63986.66;5010620;28;20034;-73
2023/02/15 08:42:34;;;;;;;16.85;10.20;;;3.60;99.90;;;-148.53;100.00;63986.66;5010399;28;20039;-72
2023/02/15 08:45:00;;;;;;;17.70;10.05;;;3.70;99.90;;;-148.53;100.00;63986.66;5010816;28;20104;-72
2023/02/15 08:47:26;;;;;;;17.48;10.07;;;3.80;99.90;;;-148.53;100.00;63986.66;5009891;28;20045;-72
2023/02/15 08:49:52;;;;;;;16.88;9.18;;;3.90;99.90;;;-148.53;100.00;63986.66;5001910;28;20038;-73
2023/02/15 08:52:18;;;;;;;17.13;9.88;;;3.90;99.90;;;-148.53;100.00;63986.66;5010139;28;20033;-73
2023/02/15 08:54:43;;;;;;;15.23;8.65;;;4.00;99.90;;;-148.53;100.00;63986.66;5007750;28;20042;-72
2023/02/15 08:57:10;;;;;;;16.42;9.75;;;4.00;99.90;;;-148.53;100.00;63986.66;5010536;28;20150;-73
2023/02/15 08:59:35;;;;;;;15.07;8.77;;;4.10;99.90;;;-148.53;100.00;63986.66;5010228;28;20125;-73
2023/02/15 09:02:02;;;;;;;16.75;9.55;;;4.10;99.90;;;-148.53;100.00;63986.66;4999563;28;20038;-74
2023/02/15 09:04:28;;;;;;;17.27;9.52;;;4.10;99.90;;;-148.53;100.00;63986.66;5008958;28;20034;-72
2023/02/15 09:06:55;;;;;;;16.75;9.80;;;4.20;99.90;;;-148.53;100.00;63986.66;5010145;28;20169;-72
2023/02/15 09:09:21;;;;;;;16.17;9.05;;;4.30;99.90;;;-148.53;100.00;63986.66;5009615;28;20111;-72
2023/02/15 09:11:50;;;;;;;15.05;8.65;;;4.30;99.90;;;-148.53;100.00;63986.66;5008945;28;20057;-72
2023/02/15 09:14:20;;;;;;;15.60;8.93;;;4.40;99.90;;;-148.53;100.00;63986.66;5008715;28;20065;-72
2023/02/15 09:16:48;;;;;;;14.45;8.65;;;4.40;99.90;;;-148.53;100.00;63986.66;5004412;28;20048;-72
2023/02/15 09:19:17;;;;;;;16.48;9.70;;;4.60;99.90;;;-148.53;100.00;63986.66;5008879;28;20125;-72
2023/02/15 09:21:42;;;;;;;14.60;8.88;;;4.70;99.90;;;-148.53;100.00;63986.66;4996656;28;20041;-73
2023/02/15 09:24:12;;;;;;;17.05;9.45;;;4.80;99.90;;;-148.53;100.00;63986.66;5007881;28;20040;-73
2023/02/15 09:26:41;;;;;;;16.25;9.63;;;4.80;99.90;;;-148.53;100.00;63986.66;5008417;28;20070;-72
2023/02/15 09:29:09;;;;;;;16.58;9.55;;;4.90;99.90;;;-148.53;100.00;63986.66;5008037;28;20029;-72
2023/02/15 09:31:48;;;;;;;17.17;9.32;;;5.10;99.90;;;-148.53;100.00;63986.66;5009239;28;20037;-74
2023/02/15 09:34:17;;;;;;;14.50;8.35;;;5.30;99.90;;;-148.53;100.00;63986.66;5009612;28;20125;-73
2023/02/15 09:36:44;;;;;;;20.88;9.35;;;5.40;99.90;;;-148.53;100.00;63986.66;5009207;28;20441;-73
2023/02/15 09:39:18;;;;;;;13.52;8.20;;;5.50;99.90;;;-148.53;100.00;63986.66;5004192;28;20053;-72
2023/02/15 09:42:26;;;;;;;14.10;8.30;;;5.60;99.90;;;-148.53;100.00;63986.66;5000695;28;20042;-74
2023/02/15 09:45:23;;;;;;;13.35;7.97;;;5.60;99.90;;;-148.53;100.00;63986.66;5004747;28;20109;-73
2023/02/15 09:48:27;;;;;;;14.35;8.65;;;5.60;99.90;;;-148.53;100.00;63986.66;5002797;28;20045;-77
2023/02/15 09:51:26;;;;;;;14.57;8.35;;;5.70;99.90;;;-148.53;100.00;63986.66;5008581;28;20042;-75
2023/02/15 09:53:51;;;;;;;13.43;7.95;;;5.60;99.90;;;-148.53;100.00;63986.66;5007762;28;20485;-74
2023/02/15 09:56:38;;;;;;;14.82;8.68;;;5.80;99.90;;;-148.53;100.00;63986.66;5008844;28;20038;-75
2023/02/15 09:59:51;;;;;;;13.40;7.95;;;6.10;99.90;;;-148.53;100.00;63986.66;5008324;28;20158;-75
2023/02/15 10:02:43;;;;;;;15.10;8.65;;;6.50;99.90;;;-148.53;100.00;63986.66;5005323;28;20500;-76
2023/02/15 10:05:59;;;;;;;13.68;8.30;;;7.20;99.90;;;-148.53;100.00;63986.66;5002308;28;20030;-72
2023/02/15 10:08:38;;;;;;;14.20;8.40;;;8.40;99.90;;;-148.53;100.00;63986.66;5003072;28;20046;-75
2023/02/15 10:11:41;;;;;;;12.57;7.72;;;9.60;99.90;;;-148.53;100.00;63986.66;5008665;28;20124;-75
2023/02/15 10:15:04;;;;;;;12.07;7.43;;;10.50;99.90;;;-148.53;100.00;63986.66;5006094;28;20045;-73
2023/02/15 10:17:55;;;;;;;14.70;7.85;;;11.50;99.90;;;-148.53;100.00;63986.66;5005576;28;20109;-75
2023/02/15 10:20:50;;;;;;;13.32;7.75;;;;;;;-148.53;100.00;63986.66;5004105;28;20033;-75
2023/02/15 10:23:47;;;;;;;11.90;7.75;;;12.10;98.10;;;-148.53;100.00;63986.66;5005541;28;20049;-75
2023/02/15 10:26:18;;;;;;;11.38;7.32;;;12.60;93.50;;;-148.53;100.00;63986.66;5006668;28;20113;-74
2023/02/15 10:29:24;;;;;;;10.10;7.18;;;12.70;93.80;;;-148.53;100.00;63986.66;5008615;28;20057;-75
2023/02/15 10:32:16;;;;;;;11.43;7.22;;;13.30;91.20;;;-148.53;100.00;63986.66;5005085;28;20133;-75
2023/02/15 10:35:15;;;;;;;10.68;7.00;;;14.10;88.30;;;-148.53;100.00;63986.66;5006787;28;20075;-74
2023/02/15 10:38:03;;;;;;;10.32;6.90;;;13.40;90.20;;;-148.53;100.00;63986.66;5003568;28;20038;-75
2023/02/15 10:40:56;;;;;;;10.82;7.07;;;13.30;89.60;;;-148.53;100.00;63986.66;5007418;28;20177;-75